FCA5605 LOWI-EGSS
Flight info
| Callsign | FCA5605 |
|---|---|
| Flight time | N/A |
| Altitude | 34000 |
| Route | KOGOL M726 ERNAS DCT INBED DCT BOMBI DCT ADKUV DCT KOZUF DCT IMPOH DCT SASKI L608 SUMUM Y6 TOSVA |
| Aircraft | A321/M-SDE3FGHIRWY/LB1 |
Departure
| Time | 2026-05-06 16:45 |
|---|---|
| Airport | Innsbruck Airport (LOWI) |
Arrival
| Time | N/A |
|---|---|
| Airport | London Stansted Airport (EGSS) |
| Time | Latitude | Longitude | Altitude | Speed | Heading |
|---|---|---|---|---|---|
| 2026-05-06 16:25 | 47.25833 | 11.35108 | 1907 ft | 0 kts | 171° |
| 2026-05-06 16:36 | 47.25843 | 11.35105 | 1894 ft | 4 kts | 177° |
| 2026-05-06 16:36 | 47.25868 | 11.35110 | 1896 ft | 4 kts | 210° |
| 2026-05-06 16:36 | 47.25886 | 11.35135 | 1894 ft | 4 kts | 255° |
| 2026-05-06 16:37 | 47.25888 | 11.35150 | 1896 ft | 1 kts | 261° |
| 2026-05-06 16:39 | 47.25887 | 11.35142 | 1907 ft | 2 kts | 261° |
| 2026-05-06 16:39 | 47.25881 | 11.35083 | 1907 ft | 10 kts | 261° |
| 2026-05-06 16:40 | 47.25866 | 11.34946 | 1900 ft | 14 kts | 261° |
| 2026-05-06 16:40 | 47.25852 | 11.34810 | 1904 ft | 13 kts | 261° |
| 2026-05-06 16:40 | 47.25839 | 11.34692 | 1904 ft | 11 kts | 261° |
| 2026-05-06 16:40 | 47.25827 | 11.34579 | 1907 ft | 12 kts | 261° |
| 2026-05-06 16:41 | 47.25811 | 11.34437 | 1903 ft | 16 kts | 261° |
| 2026-05-06 16:41 | 47.25794 | 11.34277 | 1901 ft | 15 kts | 261° |
| 2026-05-06 16:41 | 47.25778 | 11.34133 | 1894 ft | 13 kts | 261° |
| 2026-05-06 16:41 | 47.25772 | 11.34006 | 1907 ft | 12 kts | 275° |
| 2026-05-06 16:42 | 47.25796 | 11.33905 | 1898 ft | 9 kts | 301° |
| 2026-05-06 16:42 | 47.25809 | 11.33878 | 1899 ft | 0 kts | 309° |
| 2026-05-06 16:42 | 47.25820 | 11.33859 | 1892 ft | 6 kts | 309° |
| 2026-05-06 16:43 | 47.25863 | 11.33773 | 1901 ft | 13 kts | 304° |
| 2026-05-06 16:43 | 47.25911 | 11.33674 | 1899 ft | 10 kts | 306° |
| 2026-05-06 16:43 | 47.25933 | 11.33587 | 1896 ft | 10 kts | 262° |
| 2026-05-06 16:43 | 47.25918 | 11.33444 | 1901 ft | 19 kts | 261° |
| 2026-05-06 16:44 | 47.25894 | 11.33304 | 1906 ft | 12 kts | 236° |
| 2026-05-06 16:44 | 47.25849 | 11.33212 | 1901 ft | 10 kts | 241° |
| 2026-05-06 16:44 | 47.25834 | 11.33117 | 1903 ft | 9 kts | 262° |
| 2026-05-06 16:44 | 47.25870 | 11.33077 | 1898 ft | 6 kts | 17° |
| 2026-05-06 16:45 | 47.25887 | 11.33152 | 1906 ft | 16 kts | 81° |
| 2026-05-06 16:45 | 47.25946 | 11.33700 | 1901 ft | 93 kts | 81° |
| 2026-05-06 16:45 | 47.26085 | 11.34993 | 1905 ft | 156 kts | 81° |
| 2026-05-06 16:45 | 47.26257 | 11.36614 | 2628 ft | 157 kts | 87° |
| 2026-05-06 16:46 | 47.26413 | 11.38230 | 3400 ft | 162 kts | 85° |
| 2026-05-06 16:46 | 47.26580 | 11.39904 | 3831 ft | 173 kts | 83° |
| 2026-05-06 16:46 | 47.26779 | 11.41797 | 3889 ft | 196 kts | 82° |
| 2026-05-06 16:46 | 47.26987 | 11.43880 | 3906 ft | 220 kts | 82° |
| 2026-05-06 16:47 | 47.27421 | 11.46140 | 4007 ft | 241 kts | 71° |
| 2026-05-06 16:47 | 47.28027 | 11.48576 | 4122 ft | 266 kts | 69° |
| 2026-05-06 16:47 | 47.28726 | 11.51024 | 4280 ft | 289 kts | 66° |